sensor_id;sensor_type;location;lat;lon;timestamp;temperature;humidity
42099;DHT22;27758;55.900;8.516;2023-04-07T00:00:43;4.30;99.90
42099;DHT22;27758;55.900;8.516;2023-04-07T00:03:09;4.40;99.90
42099;DHT22;27758;55.900;8.516;2023-04-07T00:05:35;4.40;99.90
42099;DHT22;27758;55.900;8.516;2023-04-07T00:08:01;4.40;99.90
42099;DHT22;27758;55.900;8.516;2023-04-07T00:10:27;4.30;99.90
42099;DHT22;27758;55.900;8.516;2023-04-07T00:12:53;4.30;99.90
42099;DHT22;27758;55.900;8.516;2023-04-07T00:15:18;4.30;99.90
42099;DHT22;27758;55.900;8.516;2023-04-07T00:17:44;4.20;99.90
42099;DHT22;27758;55.900;8.516;2023-04-07T00:20:11;4.30;99.90
42099;DHT22;27758;55.900;8.516;2023-04-07T00:22:36;4.20;99.90
42099;DHT22;27758;55.900;8.516;2023-04-07T00:25:02;4.20;99.90
42099;DHT22;27758;55.900;8.516;2023-04-07T00:27:28;4.20;99.90
42099;DHT22;27758;55.900;8.516;2023-04-07T00:29:53;4.20;99.90
42099;DHT22;27758;55.900;8.516;2023-04-07T00:32:20;4.20;99.90
42099;DHT22;27758;55.900;8.516;2023-04-07T00:34:46;4.20;99.90
42099;DHT22;27758;55.900;8.516;2023-04-07T00:37:13;4.20;99.90
42099;DHT22;27758;55.900;8.516;2023-04-07T00:39:38;4.20;99.90
42099;DHT22;27758;55.900;8.516;2023-04-07T00:42:04;4.20;99.90
42099;DHT22;27758;55.900;8.516;2023-04-07T00:44:32;4.10;99.90
42099;DHT22;27758;55.900;8.516;2023-04-07T00:46:58;4.10;99.90
42099;DHT22;27758;55.900;8.516;2023-04-07T00:49:25;4.10;99.90
42099;DHT22;27758;55.900;8.516;2023-04-07T00:51:54;4.00;99.90
42099;DHT22;27758;55.900;8.516;2023-04-07T00:54:22;3.90;99.90
42099;DHT22;27758;55.900;8.516;2023-04-07T00:56:48;3.90;99.90
42099;DHT22;27758;55.900;8.516;2023-04-07T00:59:13;4.00;99.90
42099;DHT22;27758;55.900;8.516;2023-04-07T01:01:49;3.90;99.90
42099;DHT22;27758;55.900;8.516;2023-04-07T01:04:34;4.00;99.90
42099;DHT22;27758;55.900;8.516;2023-04-07T01:07:14;4.00;99.90
42099;DHT22;27758;55.900;8.516;2023-04-07T01:09:45;3.90;99.90
42099;DHT22;27758;55.900;8.516;2023-04-07T01:15:10;3.80;99.90
42099;DHT22;27758;55.900;8.516;2023-04-07T01:17:43;3.80;99.90
42099;DHT22;27758;55.900;8.516;2023-04-07T01:20:15;3.80;99.90
42099;DHT22;27758;55.900;8.516;2023-04-07T01:22:46;3.70;99.90
42099;DHT22;27758;55.900;8.516;2023-04-07T01:25:52;3.70;99.90
42099;DHT22;27758;55.900;8.516;2023-04-07T01:31:38;3.70;99.90
42099;DHT22;27758;55.900;8.516;2023-04-07T01:34:07;3.70;99.90
42099;DHT22;27758;55.900;8.516;2023-04-07T01:36:34;3.70;99.90
42099;DHT22;27758;55.900;8.516;2023-04-07T01:39:00;3.60;99.90
42099;DHT22;27758;55.900;8.516;2023-04-07T01:41:27;3.60;99.90
42099;DHT22;27758;55.900;8.516;2023-04-07T01:43:53;3.60;99.90
42099;DHT22;27758;55.900;8.516;2023-04-07T01:46:20;3.60;99.90
42099;DHT22;27758;55.900;8.516;2023-04-07T01:48:47;3.60;99.90
42099;DHT22;27758;55.900;8.516;2023-04-07T01:51:13;3.60;99.90
42099;DHT22;27758;55.900;8.516;2023-04-07T01:53:47;3.60;99.90
42099;DHT22;27758;55.900;8.516;2023-04-07T01:56:13;3.60;99.90
42099;DHT22;27758;55.900;8.516;2023-04-07T01:58:39;3.50;99.90
42099;DHT22;27758;55.900;8.516;2023-04-07T02:01:05;3.50;99.90
42099;DHT22;27758;55.900;8.516;2023-04-07T02:03:39;3.50;99.90
42099;DHT22;27758;55.900;8.516;2023-04-07T02:06:08;3.40;99.90
42099;DHT22;27758;55.900;8.516;2023-04-07T02:08:38;3.40;99.90
42099;DHT22;27758;55.900;8.516;2023-04-07T02:11:05;3.40;99.90
42099;DHT22;27758;55.900;8.516;2023-04-07T02:13:33;3.40;99.90
42099;DHT22;27758;55.900;8.516;2023-04-07T02:16:00;3.40;99.90
42099;DHT22;27758;55.900;8.516;2023-04-07T02:18:27;3.40;99.90
42099;DHT22;27758;55.900;8.516;2023-04-07T02:20:55;3.40;99.90
42099;DHT22;27758;55.900;8.516;2023-04-07T02:23:21;3.30;99.90
42099;DHT22;27758;55.900;8.516;2023-04-07T02:25:47;3.40;99.90
42099;DHT22;27758;55.900;8.516;2023-04-07T02:28:13;3.40;99.90
42099;DHT22;27758;55.900;8.516;2023-04-07T02:30:38;3.40;99.90
42099;DHT22;27758;55.900;8.516;2023-04-07T02:33:04;3.40;99.90
42099;DHT22;27758;55.900;8.516;2023-04-07T02:35:30;3.30;99.90
42099;DHT22;27758;55.900;8.516;2023-04-07T02:37:56;3.30;99.90
42099;DHT22;27758;55.900;8.516;2023-04-07T02:40:21;3.30;99.90
42099;DHT22;27758;55.900;8.516;2023-04-07T02:42:47;3.30;99.90
42099;DHT22;27758;55.900;8.516;2023-04-07T02:45:13;3.30;99.90
42099;DHT22;27758;55.900;8.516;2023-04-07T02:47:39;3.30;99.90
42099;DHT22;27758;55.900;8.516;2023-04-07T02:50:05;3.30;99.90
42099;DHT22;27758;55.900;8.516;2023-04-07T02:52:31;3.20;99.90
42099;DHT22;27758;55.900;8.516;2023-04-07T02:54:57;3.20;99.90
42099;DHT22;27758;55.900;8.516;2023-04-07T02:57:22;3.20;99.90
42099;DHT22;27758;55.900;8.516;2023-04-07T02:59:48;3.20;99.90
42099;DHT22;27758;55.900;8.516;2023-04-07T03:02:14;3.20;99.90
42099;DHT22;27758;55.900;8.516;2023-04-07T03:04:39;3.20;99.90
42099;DHT22;27758;55.900;8.516;2023-04-07T03:07:05;3.10;99.90
42099;DHT22;27758;55.900;8.516;2023-04-07T03:09:31;3.10;99.90
42099;DHT22;27758;55.900;8.516;2023-04-07T03:11:57;3.10;99.90
42099;DHT22;27758;55.900;8.516;2023-04-07T03:14:22;3.10;99.90
42099;DHT22;27758;55.900;8.516;2023-04-07T03:16:48;3.10;99.90
42099;DHT22;27758;55.900;8.516;2023-04-07T03:19:14;3.10;99.90
42099;DHT22;27758;55.900;8.516;2023-04-07T03:21:41;3.10;99.90
42099;DHT22;27758;55.900;8.516;2023-04-07T03:24:07;3.10;99.90
42099;DHT22;27758;55.900;8.516;2023-04-07T03:26:33;3.10;99.90
42099;DHT22;27758;55.900;8.516;2023-04-07T03:28:58;3.10;99.90
42099;DHT22;27758;55.900;8.516;2023-04-07T03:31:24;3.10;99.90
42099;DHT22;27758;55.900;8.516;2023-04-07T03:33:50;3.10;99.90
42099;DHT22;27758;55.900;8.516;2023-04-07T03:36:16;3.10;99.90
42099;DHT22;27758;55.900;8.516;2023-04-07T03:38:46;3.00;99.90
42099;DHT22;27758;55.900;8.516;2023-04-07T03:41:12;3.00;99.90
42099;DHT22;27758;55.900;8.516;2023-04-07T03:43:37;3.00;99.90
42099;DHT22;27758;55.900;8.516;2023-04-07T03:46:03;3.00;99.90
42099;DHT22;27758;55.900;8.516;2023-04-07T03:48:29;3.00;99.90
42099;DHT22;27758;55.900;8.516;2023-04-07T03:50:55;3.00;99.90
42099;DHT22;27758;55.900;8.516;2023-04-07T03:53:21;2.90;99.90
42099;DHT22;27758;55.900;8.516;2023-04-07T03:55:47;2.90;99.90
42099;DHT22;27758;55.900;8.516;2023-04-07T03:58:13;2.90;99.90
42099;DHT22;27758;55.900;8.516;2023-04-07T04:00:39;2.90;99.90
42099;DHT22;27758;55.900;8.516;2023-04-07T04:03:05;2.90;99.90
42099;DHT22;27758;55.900;8.516;2023-04-07T04:05:30;2.80;99.90
42099;DHT22;27758;55.900;8.516;2023-04-07T04:07:56;2.80;99.90
42099;DHT22;27758;55.900;8.516;2023-04-07T04:10:22;2.80;99.90
42099;DHT22;27758;55.900;8.516;2023-04-07T04:12:51;2.80;99.90
42099;DHT22;27758;55.900;8.516;2023-04-07T04:15:16;2.70;99.90
42099;DHT22;27758;55.900;8.516;2023-04-07T04:17:42;2.70;99.90
42099;DHT22;27758;55.900;8.516;2023-04-07T04:20:08;2.70;99.90
42099;DHT22;27758;55.900;8.516;2023-04-07T04:22:34;2.60;99.90
42099;DHT22;27758;55.900;8.516;2023-04-07T04:25:00;2.50;99.90
42099;DHT22;27758;55.900;8.516;2023-04-07T04:27:26;2.40;99.90
42099;DHT22;27758;55.900;8.516;2023-04-07T04:29:52;2.40;99.90
42099;DHT22;27758;55.900;8.516;2023-04-07T04:32:18;2.40;99.90
42099;DHT22;27758;55.900;8.516;2023-04-07T04:34:44;2.40;99.90
42099;DHT22;27758;55.900;8.516;2023-04-07T04:37:10;2.30;99.90
42099;DHT22;27758;55.900;8.516;2023-04-07T04:39:36;2.30;99.90
42099;DHT22;27758;55.900;8.516;2023-04-07T04:42:02;2.20;99.90
42099;DHT22;27758;55.900;8.516;2023-04-07T04:44:28;2.30;99.90
42099;DHT22;27758;55.900;8.516;2023-04-07T04:46:55;2.30;99.90
42099;DHT22;27758;55.900;8.516;2023-04-07T04:49:21;2.20;99.90
42099;DHT22;27758;55.900;8.516;2023-04-07T04:51:47;2.20;99.90
42099;DHT22;27758;55.900;8.516;2023-04-07T04:54:12;2.20;99.90
42099;DHT22;27758;55.900;8.516;2023-04-07T04:56:38;2.20;99.90
42099;DHT22;27758;55.900;8.516;2023-04-07T04:59:04;2.20;99.90
42099;DHT22;27758;55.900;8.516;2023-04-07T05:01:30;2.20;99.90
42099;DHT22;27758;55.900;8.516;2023-04-07T05:03:56;2.20;99.90
42099;DHT22;27758;55.900;8.516;2023-04-07T05:06:22;2.20;99.90
42099;DHT22;27758;55.900;8.516;2023-04-07T05:08:47;2.20;99.90
42099;DHT22;27758;55.900;8.516;2023-04-07T05:11:13;2.30;99.90
42099;DHT22;27758;55.900;8.516;2023-04-07T05:13:39;2.30;99.90
42099;DHT22;27758;55.900;8.516;2023-04-07T05:16:05;2.30;99.90
42099;DHT22;27758;55.900;8.516;2023-04-07T05:18:31;2.40;99.90
42099;DHT22;27758;55.900;8.516;2023-04-07T05:20:57;2.40;99.90
42099;DHT22;27758;55.900;8.516;2023-04-07T05:23:23;2.50;99.90
42099;DHT22;27758;55.900;8.516;2023-04-07T05:25:49;2.50;99.90
42099;DHT22;27758;55.900;8.516;2023-04-07T05:28:15;2.60;99.90
42099;DHT22;27758;55.900;8.516;2023-04-07T05:30:41;2.60;99.90
42099;DHT22;27758;55.900;8.516;2023-04-07T05:33:06;2.70;99.90
42099;DHT22;27758;55.900;8.516;2023-04-07T05:35:32;2.70;99.90
42099;DHT22;27758;55.900;8.516;2023-04-07T05:37:58;2.70;99.90
42099;DHT22;27758;55.900;8.516;2023-04-07T05:40:23;2.80;99.90
42099;DHT22;27758;55.900;8.516;2023-04-07T05:42:49;2.90;99.90
42099;DHT22;27758;55.900;8.516;2023-04-07T05:45:15;2.90;99.90
42099;DHT22;27758;55.900;8.516;2023-04-07T05:47:41;3.00;99.90
42099;DHT22;27758;55.900;8.516;2023-04-07T05:50:07;3.00;99.90
42099;DHT22;27758;55.900;8.516;2023-04-07T05:52:33;3.10;99.90
42099;DHT22;27758;55.900;8.516;2023-04-07T05:54:59;3.10;99.90
42099;DHT22;27758;55.900;8.516;2023-04-07T05:57:24;3.20;99.90
42099;DHT22;27758;55.900;8.516;2023-04-07T05:59:52;3.20;99.90
42099;DHT22;27758;55.900;8.516;2023-04-07T06:02:18;3.30;99.90
42099;DHT22;27758;55.900;8.516;2023-04-07T06:04:43;3.40;99.90
42099;DHT22;27758;55.900;8.516;2023-04-07T06:07:09;3.50;99.90
42099;DHT22;27758;55.900;8.516;2023-04-07T06:09:35;3.60;99.90
42099;DHT22;27758;55.900;8.516;2023-04-07T06:12:01;3.70;99.90
42099;DHT22;27758;55.900;8.516;2023-04-07T06:14:29;3.80;99.90
42099;DHT22;27758;55.900;8.516;2023-04-07T06:16:55;3.90;99.90
42099;DHT22;27758;55.900;8.516;2023-04-07T06:19:21;4.00;99.90
42099;DHT22;27758;55.900;8.516;2023-04-07T06:21:47;4.10;99.90
42099;DHT22;27758;55.900;8.516;2023-04-07T06:24:12;4.20;99.90
42099;DHT22;27758;55.900;8.516;2023-04-07T06:26:39;4.20;99.90
42099;DHT22;27758;55.900;8.516;2023-04-07T06:29:05;4.40;99.90
42099;DHT22;27758;55.900;8.516;2023-04-07T06:31:31;4.50;99.90
42099;DHT22;27758;55.900;8.516;2023-04-07T06:33:56;4.60;99.90
42099;DHT22;27758;55.900;8.516;2023-04-07T06:36:23;4.70;99.90
42099;DHT22;27758;55.900;8.516;2023-04-07T06:38:49;4.80;99.90
42099;DHT22;27758;55.900;8.516;2023-04-07T06:41:15;4.90;99.90
42099;DHT22;27758;55.900;8.516;2023-04-07T06:43:46;5.00;99.90
42099;DHT22;27758;55.900;8.516;2023-04-07T06:46:12;5.10;99.90
42099;DHT22;27758;55.900;8.516;2023-04-07T06:48:37;5.30;99.90
42099;DHT22;27758;55.900;8.516;2023-04-07T06:51:03;5.30;99.90
42099;DHT22;27758;55.900;8.516;2023-04-07T06:53:29;5.40;99.90
42099;DHT22;27758;55.900;8.516;2023-04-07T06:56:08;5.40;99.90
42099;DHT22;27758;55.900;8.516;2023-04-07T06:58:35;5.60;99.90
42099;DHT22;27758;55.900;8.516;2023-04-07T07:01:03;5.70;99.90
42099;DHT22;27758;55.900;8.516;2023-04-07T07:03:29;5.70;99.90
42099;DHT22;27758;55.900;8.516;2023-04-07T07:05:57;5.90;99.90
42099;DHT22;27758;55.900;8.516;2023-04-07T07:08:23;6.10;99.90
42099;DHT22;27758;55.900;8.516;2023-04-07T07:10:49;6.10;99.90
42099;DHT22;27758;55.900;8.516;2023-04-07T07:13:15;6.10;99.90
42099;DHT22;27758;55.900;8.516;2023-04-07T07:15:44;6.10;99.90
42099;DHT22;27758;55.900;8.516;2023-04-07T07:18:13;6.30;99.90
42099;DHT22;27758;55.900;8.516;2023-04-07T07:20:38;6.40;99.90
42099;DHT22;27758;55.900;8.516;2023-04-07T07:23:04;6.60;99.90
42099;DHT22;27758;55.900;8.516;2023-04-07T07:25:30;6.60;99.90
42099;DHT22;27758;55.900;8.516;2023-04-07T07:27:56;6.90;99.90
42099;DHT22;27758;55.900;8.516;2023-04-07T07:30:22;7.10;99.90
42099;DHT22;27758;55.900;8.516;2023-04-07T07:32:49;7.10;99.90
42099;DHT22;27758;55.900;8.516;2023-04-07T07:35:15;7.00;99.90
42099;DHT22;27758;55.900;8.516;2023-04-07T07:37:41;7.20;99.90
42099;DHT22;27758;55.900;8.516;2023-04-07T07:40:09;7.40;99.90
42099;DHT22;27758;55.900;8.516;2023-04-07T07:42:36;7.60;99.90
42099;DHT22;27758;55.900;8.516;2023-04-07T07:45:02;7.80;99.90
42099;DHT22;27758;55.900;8.516;2023-04-07T07:47:27;7.90;99.90
42099;DHT22;27758;55.900;8.516;2023-04-07T07:49:53;7.90;99.90
42099;DHT22;27758;55.900;8.516;2023-04-07T07:52:19;8.00;99.90
42099;DHT22;27758;55.900;8.516;2023-04-07T07:54:48;8.20;99.90
42099;DHT22;27758;55.900;8.516;2023-04-07T07:57:15;8.30;99.90
42099;DHT22;27758;55.900;8.516;2023-04-07T07:59:40;8.20;99.90
42099;DHT22;27758;55.900;8.516;2023-04-07T08:02:07;8.30;99.90
42099;DHT22;27758;55.900;8.516;2023-04-07T08:04:33;8.30;99.90
42099;DHT22;27758;55.900;8.516;2023-04-07T08:06:59;8.30;99.90
42099;DHT22;27758;55.900;8.516;2023-04-07T08:09:25;8.40;99.90
42099;DHT22;27758;55.900;8.516;2023-04-07T08:11:50;8.60;99.90
42099;DHT22;27758;55.900;8.516;2023-04-07T08:14:16;8.70;99.90
42099;DHT22;27758;55.900;8.516;2023-04-07T08:16:43;8.60;99.90
42099;DHT22;27758;55.900;8.516;2023-04-07T08:19:09;8.70;99.90
42099;DHT22;27758;55.900;8.516;2023-04-07T08:21:35;8.80;99.90
42099;DHT22;27758;55.900;8.516;2023-04-07T08:24:01;9.00;99.90
42099;DHT22;27758;55.900;8.516;2023-04-07T08:26:27;9.00;99.90
42099;DHT22;27758;55.900;8.516;2023-04-07T08:28:53;9.10;99.90
42099;DHT22;27758;55.900;8.516;2023-04-07T08:31:20;9.20;99.90
42099;DHT22;27758;55.900;8.516;2023-04-07T08:33:46;9.20;99.90
42099;DHT22;27758;55.900;8.516;2023-04-07T08:36:12;9.20;99.90
42099;DHT22;27758;55.900;8.516;2023-04-07T08:38:38;9.20;99.90
42099;DHT22;27758;55.900;8.516;2023-04-07T08:41:09;9.60;99.90
42099;DHT22;27758;55.900;8.516;2023-04-07T08:43:38;9.80;99.90
42099;DHT22;27758;55.900;8.516;2023-04-07T08:46:04;9.90;99.90
42099;DHT22;27758;55.900;8.516;2023-04-07T08:48:31;10.10;99.90
42099;DHT22;27758;55.900;8.516;2023-04-07T08:51:06;10.00;99.90
42099;DHT22;27758;55.900;8.516;2023-04-07T08:53:46;10.10;99.90
42099;DHT22;27758;55.900;8.516;2023-04-07T08:56:18;10.40;99.90
42099;DHT22;27758;55.900;8.516;2023-04-07T08:58:47;10.60;99.90
42099;DHT22;27758;55.900;8.516;2023-04-07T09:01:13;10.80;99.90
42099;DHT22;27758;55.900;8.516;2023-04-07T09:03:41;10.90;99.90
42099;DHT22;27758;55.900;8.516;2023-04-07T09:06:09;11.00;99.90
42099;DHT22;27758;55.900;8.516;2023-04-07T09:08:36;10.90;99.90
42099;DHT22;27758;55.900;8.516;2023-04-07T09:11:02;10.90;99.90
42099;DHT22;27758;55.900;8.516;2023-04-07T09:13:27;10.80;99.90
42099;DHT22;27758;55.900;8.516;2023-04-07T09:15:53;11.10;99.90
42099;DHT22;27758;55.900;8.516;2023-04-07T09:18:40;11.30;99.90
42099;DHT22;27758;55.900;8.516;2023-04-07T09:21:07;11.30;99.90
42099;DHT22;27758;55.900;8.516;2023-04-07T09:23:38;11.40;99.90
42099;DHT22;27758;55.900;8.516;2023-04-07T09:28:44;11.30;99.90
42099;DHT22;27758;55.900;8.516;2023-04-07T09:31:10;11.70;99.90
42099;DHT22;27758;55.900;8.516;2023-04-07T09:33:36;11.60;99.90
42099;DHT22;27758;55.900;8.516;2023-04-07T09:36:03;11.70;99.90
42099;DHT22;27758;55.900;8.516;2023-04-07T09:38:34;11.80;99.90
42099;DHT22;27758;55.900;8.516;2023-04-07T09:41:12;11.70;99.90
42099;DHT22;27758;55.900;8.516;2023-04-07T09:43:41;11.60;99.90
42099;DHT22;27758;55.900;8.516;2023-04-07T09:46:10;11.50;99.90
42099;DHT22;27758;55.900;8.516;2023-04-07T09:48:37;11.90;99.90
42099;DHT22;27758;55.900;8.516;2023-04-07T09:51:16;12.20;99.90
42099;DHT22;27758;55.900;8.516;2023-04-07T09:53:47;11.80;99.90
42099;DHT22;27758;55.900;8.516;2023-04-07T09:56:15;12.00;99.90
42099;DHT22;27758;55.900;8.516;2023-04-07T09:58:43;12.70;99.90
42099;DHT22;27758;55.900;8.516;2023-04-07T10:01:10;12.90;99.90
42099;DHT22;27758;55.900;8.516;2023-04-07T10:03:37;12.40;99.90
42099;DHT22;27758;55.900;8.516;2023-04-07T10:06:05;12.40;99.90
42099;DHT22;27758;55.900;8.516;2023-04-07T10:08:33;12.40;99.90
42099;DHT22;27758;55.900;8.516;2023-04-07T10:11:04;12.60;99.90
42099;DHT22;27758;55.900;8.516;2023-04-07T10:13:31;12.70;99.90
42099;DHT22;27758;55.900;8.516;2023-04-07T10:15:58;12.80;99.90
42099;DHT22;27758;55.900;8.516;2023-04-07T10:18:29;12.60;99.90
42099;DHT22;27758;55.900;8.516;2023-04-07T10:20:59;12.30;99.90
42099;DHT22;27758;55.900;8.516;2023-04-07T10:26:13;12.40;99.90
42099;DHT22;27758;55.900;8.516;2023-04-07T10:28:41;12.50;99.50
42099;DHT22;27758;55.900;8.516;2023-04-07T10:31:09;12.60;99.90
42099;DHT22;27758;55.900;8.516;2023-04-07T10:33:53;12.50;98.80
42099;DHT22;27758;55.900;8.516;2023-04-07T10:36:21;12.80;97.50
42099;DHT22;27758;55.900;8.516;2023-04-07T10:41:32;12.90;97.20
42099;DHT22;27758;55.900;8.516;2023-04-07T10:44:01;13.00;96.30
42099;DHT22;27758;55.900;8.516;2023-04-07T10:49:13;12.90;96.50
42099;DHT22;27758;55.900;8.516;2023-04-07T10:51:39;12.90;96.20
42099;DHT22;27758;55.900;8.516;2023-04-07T10:54:21;13.40;96.40
42099;DHT22;27758;55.900;8.516;2023-04-07T10:57:09;13.10;96.70
42099;DHT22;27758;55.900;8.516;2023-04-07T10:59:38;13.00;95.60
42099;DHT22;27758;55.900;8.516;2023-04-07T11:07:07;13.20;96.30
42099;DHT22;27758;55.900;8.516;2023-04-07T11:09:33;13.10;96.20
42099;DHT22;27758;55.900;8.516;2023-04-07T11:11:58;13.30;96.30
42099;DHT22;27758;55.900;8.516;2023-04-07T11:14:25;13.10;96.30
42099;DHT22;27758;55.900;8.516;2023-04-07T11:16:51;12.90;96.30
42099;DHT22;27758;55.900;8.516;2023-04-07T11:19:18;13.30;96.80
42099;DHT22;27758;55.900;8.516;2023-04-07T11:21:44;13.70;96.90
42099;DHT22;27758;55.900;8.516;2023-04-07T11:24:09;13.80;96.90
42099;DHT22;27758;55.900;8.516;2023-04-07T11:26:41;13.50;96.30
42099;DHT22;27758;55.900;8.516;2023-04-07T11:29:08;13.60;96.30
42099;DHT22;27758;55.900;8.516;2023-04-07T11:31:36;13.50;96.90
42099;DHT22;27758;55.900;8.516;2023-04-07T11:34:04;13.70;96.60
42099;DHT22;27758;55.900;8.516;2023-04-07T11:36:31;13.80;96.30
42099;DHT22;27758;55.900;8.516;2023-04-07T11:38:59;13.70;96.30
42099;DHT22;27758;55.900;8.516;2023-04-07T11:41:26;14.00;95.80
42099;DHT22;27758;55.900;8.516;2023-04-07T11:44:09;14.00;96.20
42099;DHT22;27758;55.900;8.516;2023-04-07T11:46:36;14.20;96.50
42099;DHT22;27758;55.900;8.516;2023-04-07T11:49:13;14.00;95.10
42099;DHT22;27758;55.900;8.516;2023-04-07T11:51:42;13.90;94.50
42099;DHT22;27758;55.900;8.516;2023-04-07T11:54:08;13.70;95.60
42099;DHT22;27758;55.900;8.516;2023-04-07T11:56:43;13.80;95.90
42099;DHT22;27758;55.900;8.516;2023-04-07T11:59:21;13.70;95.50
42099;DHT22;27758;55.900;8.516;2023-04-07T12:01:48;13.40;95.20
42099;DHT22;27758;55.900;8.516;2023-04-07T12:04:14;13.50;94.80
42099;DHT22;27758;55.900;8.516;2023-04-07T12:06:40;13.50;94.70
42099;DHT22;27758;55.900;8.516;2023-04-07T12:09:23;13.30;94.50
42099;DHT22;27758;55.900;8.516;2023-04-07T12:11:50;13.20;94.90
42099;DHT22;27758;55.900;8.516;2023-04-07T12:14:15;13.40;95.80
42099;DHT22;27758;55.900;8.516;2023-04-07T12:16:41;13.80;96.30
42099;DHT22;27758;55.900;8.516;2023-04-07T12:19:07;14.00;95.60
42099;DHT22;27758;55.900;8.516;2023-04-07T12:21:32;14.10;95.30
42099;DHT22;27758;55.900;8.516;2023-04-07T12:23:58;14.10;94.90
42099;DHT22;27758;55.900;8.516;2023-04-07T12:26:24;14.10;95.30
42099;DHT22;27758;55.900;8.516;2023-04-07T12:28:50;14.00;93.60
42099;DHT22;27758;55.900;8.516;2023-04-07T12:31:18;14.00;94.30
42099;DHT22;27758;55.900;8.516;2023-04-07T12:33:44;14.00;94.60
42099;DHT22;27758;55.900;8.516;2023-04-07T12:36:11;13.60;94.50
42099;DHT22;27758;55.900;8.516;2023-04-07T12:38:39;13.60;95.50
42099;DHT22;27758;55.900;8.516;2023-04-07T12:41:05;13.70;94.90
42099;DHT22;27758;55.900;8.516;2023-04-07T12:43:31;13.80;95.20
42099;DHT22;27758;55.900;8.516;2023-04-07T12:45:57;13.90;94.80
42099;DHT22;27758;55.900;8.516;2023-04-07T12:48:23;13.90;94.10
42099;DHT22;27758;55.900;8.516;2023-04-07T12:50:51;13.60;92.50
42099;DHT22;27758;55.900;8.516;2023-04-07T12:53:16;13.40;93.50
42099;DHT22;27758;55.900;8.516;2023-04-07T12:55:42;13.60;92.80
42099;DHT22;27758;55.900;8.516;2023-04-07T12:58:08;13.80;92.60
42099;DHT22;27758;55.900;8.516;2023-04-07T13:00:33;13.60;92.40
42099;DHT22;27758;55.900;8.516;2023-04-07T13:03:00;13.40;92.50
42099;DHT22;27758;55.900;8.516;2023-04-07T13:05:25;13.30;92.70
42099;DHT22;27758;55.900;8.516;2023-04-07T13:07:51;13.20;93.00
42099;DHT22;27758;55.900;8.516;2023-04-07T13:10:17;13.20;93.80
42099;DHT22;27758;55.900;8.516;2023-04-07T13:12:43;13.60;92.00
42099;DHT22;27758;55.900;8.516;2023-04-07T13:15:09;13.70;92.10
42099;DHT22;27758;55.900;8.516;2023-04-07T13:17:34;13.70;91.60
42099;DHT22;27758;55.900;8.516;2023-04-07T13:20:04;13.60;92.60
42099;DHT22;27758;55.900;8.516;2023-04-07T13:22:30;14.00;91.70
42099;DHT22;27758;55.900;8.516;2023-04-07T13:24:56;13.90;91.70
42099;DHT22;27758;55.900;8.516;2023-04-07T13:27:22;13.80;91.80
42099;DHT22;27758;55.900;8.516;2023-04-07T13:29:47;13.90;91.30
42099;DHT22;27758;55.900;8.516;2023-04-07T13:32:13;13.60;90.60
42099;DHT22;27758;55.900;8.516;2023-04-07T13:34:40;13.50;90.10
42099;DHT22;27758;55.900;8.516;2023-04-07T13:37:06;13.20;89.30
42099;DHT22;27758;55.900;8.516;2023-04-07T13:39:32;12.90;90.30
42099;DHT22;27758;55.900;8.516;2023-04-07T13:41:58;13.10;90.00
42099;DHT22;27758;55.900;8.516;2023-04-07T13:44:27;13.30;90.40
42099;DHT22;27758;55.900;8.516;2023-04-07T13:46:56;13.30;90.00
42099;DHT22;27758;55.900;8.516;2023-04-07T13:49:23;13.10;90.30
42099;DHT22;27758;55.900;8.516;2023-04-07T13:51:49;13.00;90.70
42099;DHT22;27758;55.900;8.516;2023-04-07T13:54:15;13.30;88.90
42099;DHT22;27758;55.900;8.516;2023-04-07T13:56:43;13.10;90.10
42099;DHT22;27758;55.900;8.516;2023-04-07T13:59:08;13.00;90.00
42099;DHT22;27758;55.900;8.516;2023-04-07T14:01:34;13.00;90.30
42099;DHT22;27758;55.900;8.516;2023-04-07T14:04:03;13.10;89.60
42099;DHT22;27758;55.900;8.516;2023-04-07T14:06:29;13.10;90.40
42099;DHT22;27758;55.900;8.516;2023-04-07T14:08:56;13.30;90.20
42099;DHT22;27758;55.900;8.516;2023-04-07T14:11:22;13.20;88.70
42099;DHT22;27758;55.900;8.516;2023-04-07T14:13:48;13.10;89.60
42099;DHT22;27758;55.900;8.516;2023-04-07T14:16:15;13.00;88.40
42099;DHT22;27758;55.900;8.516;2023-04-07T14:18:41;12.90;87.60
42099;DHT22;27758;55.900;8.516;2023-04-07T14:21:10;12.80;87.20
42099;DHT22;27758;55.900;8.516;2023-04-07T14:23:36;12.90;86.60
42099;DHT22;27758;55.900;8.516;2023-04-07T14:26:02;12.70;85.40
42099;DHT22;27758;55.900;8.516;2023-04-07T14:28:28;12.70;84.80
42099;DHT22;27758;55.900;8.516;2023-04-07T14:30:55;12.50;85.20
42099;DHT22;27758;55.900;8.516;2023-04-07T14:33:24;12.50;86.50
42099;DHT22;27758;55.900;8.516;2023-04-07T14:35:50;12.60;86.60
42099;DHT22;27758;55.900;8.516;2023-04-07T14:38:16;12.60;86.20
42099;DHT22;27758;55.900;8.516;2023-04-07T14:40:45;12.60;87.20
42099;DHT22;27758;55.900;8.516;2023-04-07T14:43:11;12.70;85.90
42099;DHT22;27758;55.900;8.516;2023-04-07T14:45:38;12.60;85.50
42099;DHT22;27758;55.900;8.516;2023-04-07T14:48:04;12.60;85.10
42099;DHT22;27758;55.900;8.516;2023-04-07T14:50:33;12.60;85.50
42099;DHT22;27758;55.900;8.516;2023-04-07T14:52:59;12.70;87.40
42099;DHT22;27758;55.900;8.516;2023-04-07T14:55:25;12.80;85.80
42099;DHT22;27758;55.900;8.516;2023-04-07T14:57:51;12.80;84.60
42099;DHT22;27758;55.900;8.516;2023-04-07T15:00:19;12.90;85.50
42099;DHT22;27758;55.900;8.516;2023-04-07T15:02:45;12.90;87.30
42099;DHT22;27758;55.900;8.516;2023-04-07T15:05:10;12.90;85.70
42099;DHT22;27758;55.900;8.516;2023-04-07T15:07:36;12.90;84.80
42099;DHT22;27758;55.900;8.516;2023-04-07T15:10:02;12.70;85.50
42099;DHT22;27758;55.900;8.516;2023-04-07T15:12:29;12.60;85.70
42099;DHT22;27758;55.900;8.516;2023-04-07T15:14:56;12.50;86.10
42099;DHT22;27758;55.900;8.516;2023-04-07T15:17:22;12.50;87.10
42099;DHT22;27758;55.900;8.516;2023-04-07T15:19:47;12.60;87.10
42099;DHT22;27758;55.900;8.516;2023-04-07T15:22:13;12.60;86.20
42099;DHT22;27758;55.900;8.516;2023-04-07T15:24:39;12.50;86.40
42099;DHT22;27758;55.900;8.516;2023-04-07T15:27:05;12.30;86.60
42099;DHT22;27758;55.900;8.516;2023-04-07T15:29:31;12.30;88.60
42099;DHT22;27758;55.900;8.516;2023-04-07T15:31:56;12.40;86.90
42099;DHT22;27758;55.900;8.516;2023-04-07T15:34:22;12.40;86.90
42099;DHT22;27758;55.900;8.516;2023-04-07T15:36:48;12.20;86.90
42099;DHT22;27758;55.900;8.516;2023-04-07T15:39:13;12.30;87.40
42099;DHT22;27758;55.900;8.516;2023-04-07T15:41:39;12.40;87.70
42099;DHT22;27758;55.900;8.516;2023-04-07T15:44:05;12.30;87.00
42099;DHT22;27758;55.900;8.516;2023-04-07T15:46:31;12.20;87.50
42099;DHT22;27758;55.900;8.516;2023-04-07T15:48:57;12.10;88.90
42099;DHT22;27758;55.900;8.516;2023-04-07T15:51:23;12.20;89.30
42099;DHT22;27758;55.900;8.516;2023-04-07T15:53:51;12.10;88.50
42099;DHT22;27758;55.900;8.516;2023-04-07T15:56:17;12.10;89.20
42099;DHT22;27758;55.900;8.516;2023-04-07T15:58:43;11.90;89.60
42099;DHT22;27758;55.900;8.516;2023-04-07T16:01:10;11.70;90.80